sensor_id;sensor_type;location;lat;lon;timestamp;pressure;altitude;pressure_sealevel;temperature;humidity
70976;BME280;58635;51.198;6.010;2022-10-16T00:01:45;100925.84;;;17.48;65.36
70976;BME280;58635;51.198;6.010;2022-10-16T00:04:11;100923.47;;;17.47;65.45
70976;BME280;58635;51.198;6.010;2022-10-16T00:06:37;100919.03;;;17.47;65.83
70976;BME280;58635;51.198;6.010;2022-10-16T00:09:02;100921.63;;;17.47;65.59
70976;BME280;58635;51.198;6.010;2022-10-16T00:11:33;100917.44;;;17.46;65.58
70976;BME280;58635;51.198;6.010;2022-10-16T00:14:01;100920.06;;;17.46;65.68
70976;BME280;58635;51.198;6.010;2022-10-16T00:16:28;100906.19;;;17.46;65.53
70976;BME280;58635;51.198;6.010;2022-10-16T00:18:53;100911.41;;;17.46;65.42
70976;BME280;58635;51.198;6.010;2022-10-16T00:21:21;100905.41;;;17.45;65.41
70976;BME280;58635;51.198;6.010;2022-10-16T00:23:51;100912.44;;;17.45;65.56
70976;BME280;58635;51.198;6.010;2022-10-16T00:26:18;100916.88;;;17.44;65.42
70976;BME280;58635;51.198;6.010;2022-10-16T00:28:46;100909.28;;;17.43;65.21
70976;BME280;58635;51.198;6.010;2022-10-16T00:31:12;100901.44;;;17.43;65.58
70976;BME280;58635;51.198;6.010;2022-10-16T00:33:39;100903.25;;;17.42;65.27
70976;BME280;58635;51.198;6.010;2022-10-16T00:36:06;100896.44;;;17.41;65.29
70976;BME280;58635;51.198;6.010;2022-10-16T00:38:32;100901.69;;;17.41;65.55
70976;BME280;58635;51.198;6.010;2022-10-16T00:40:58;100893.03;;;17.41;65.50
70976;BME280;58635;51.198;6.010;2022-10-16T00:43:37;100896.66;;;17.40;65.07
70976;BME280;58635;51.198;6.010;2022-10-16T00:46:08;100895.06;;;17.39;65.24
70976;BME280;58635;51.198;6.010;2022-10-16T00:48:35;100897.94;;;17.37;65.33
70976;BME280;58635;51.198;6.010;2022-10-16T00:51:01;100906.56;;;17.38;65.09
70976;BME280;58635;51.198;6.010;2022-10-16T00:53:26;100906.81;;;17.36;65.02
70976;BME280;58635;51.198;6.010;2022-10-16T00:55:52;100907.03;;;17.35;65.48
70976;BME280;58635;51.198;6.010;2022-10-16T00:58:18;100918.28;;;17.35;65.33
70976;BME280;58635;51.198;6.010;2022-10-16T01:00:43;100916.72;;;17.34;65.21
70976;BME280;58635;51.198;6.010;2022-10-16T01:03:44;100919.56;;;17.33;65.19
70976;BME280;58635;51.198;6.010;2022-10-16T01:06:25;100925.03;;;17.31;64.89
70976;BME280;58635;51.198;6.010;2022-10-16T01:09:35;100921.06;;;17.29;65.21
70976;BME280;58635;51.198;6.010;2022-10-16T01:17:49;100926.19;;;17.23;65.43
70976;BME280;58635;51.198;6.010;2022-10-16T01:20:27;100925.16;;;17.24;65.29
70976;BME280;58635;51.198;6.010;2022-10-16T01:28:40;100928.78;;;17.23;65.12
70976;BME280;58635;51.198;6.010;2022-10-16T01:31:08;100926.19;;;17.23;65.27
70976;BME280;58635;51.198;6.010;2022-10-16T01:33:42;100919.13;;;17.24;65.12
70976;BME280;58635;51.198;6.010;2022-10-16T01:36:16;100918.81;;;17.20;65.31
70976;BME280;58635;51.198;6.010;2022-10-16T01:38:44;100918.25;;;17.18;65.13
70976;BME280;58635;51.198;6.010;2022-10-16T01:41:32;100917.69;;;17.16;65.29
70976;BME280;58635;51.198;6.010;2022-10-16T01:44:02;100921.56;;;17.14;65.07
70976;BME280;58635;51.198;6.010;2022-10-16T01:46:30;100929.63;;;17.12;65.29
70976;BME280;58635;51.198;6.010;2022-10-16T01:48:57;100922.81;;;17.11;65.32
70976;BME280;58635;51.198;6.010;2022-10-16T01:51:25;100933.28;;;17.11;65.49
70976;BME280;58635;51.198;6.010;2022-10-16T01:53:53;100939.53;;;17.10;65.53
70976;BME280;58635;51.198;6.010;2022-10-16T01:56:21;100933.50;;;17.10;65.22
70976;BME280;58635;51.198;6.010;2022-10-16T02:01:25;100931.94;;;17.09;65.46
70976;BME280;58635;51.198;6.010;2022-10-16T02:03:54;100930.56;;;17.06;65.53
70976;BME280;58635;51.198;6.010;2022-10-16T02:06:21;100929.78;;;17.06;65.49
70976;BME280;58635;51.198;6.010;2022-10-16T02:08:48;100938.41;;;17.06;65.36
70976;BME280;58635;51.198;6.010;2022-10-16T02:11:14;100946.47;;;17.05;65.57
70976;BME280;58635;51.198;6.010;2022-10-16T02:13:44;100940.44;;;17.04;65.40
70976;BME280;58635;51.198;6.010;2022-10-16T02:16:11;100929.19;;;17.04;65.28
70976;BME280;58635;51.198;6.010;2022-10-16T02:18:36;100922.63;;;17.01;65.39
70976;BME280;58635;51.198;6.010;2022-10-16T02:21:23;100929.91;;;16.99;65.35
70976;BME280;58635;51.198;6.010;2022-10-16T02:24:15;100933.31;;;17.00;65.55
70976;BME280;58635;51.198;6.010;2022-10-16T02:26:57;100931.97;;;16.97;65.58
70976;BME280;58635;51.198;6.010;2022-10-16T02:29:27;100925.16;;;16.96;65.50
70976;BME280;58635;51.198;6.010;2022-10-16T02:32:02;100936.16;;;16.98;65.51
70976;BME280;58635;51.198;6.010;2022-10-16T02:34:31;100923.09;;;16.98;65.51
70976;BME280;58635;51.198;6.010;2022-10-16T02:36:58;100937.75;;;16.99;65.27
70976;BME280;58635;51.198;6.010;2022-10-16T02:39:26;100937.75;;;16.99;65.05
70976;BME280;58635;51.198;6.010;2022-10-16T02:41:52;100941.38;;;16.98;65.46
70976;BME280;58635;51.198;6.010;2022-10-16T02:44:18;100946.06;;;16.96;65.49
70976;BME280;58635;51.198;6.010;2022-10-16T02:46:43;100947.88;;;16.95;65.13
70976;BME280;58635;51.198;6.010;2022-10-16T02:49:08;100943.69;;;16.94;64.96
70976;BME280;58635;51.198;6.010;2022-10-16T02:51:34;100942.88;;;16.94;65.53
70976;BME280;58635;51.198;6.010;2022-10-16T02:53:59;100942.28;;;16.92;65.66
70976;BME280;58635;51.198;6.010;2022-10-16T02:56:24;100943.09;;;16.92;65.35
70976;BME280;58635;51.198;6.010;2022-10-16T02:58:50;100942.09;;;16.93;65.34
70976;BME280;58635;51.198;6.010;2022-10-16T03:01:15;100940.28;;;16.94;65.54
70976;BME280;58635;51.198;6.010;2022-10-16T03:03:42;100941.06;;;16.94;65.44
70976;BME280;58635;51.198;6.010;2022-10-16T03:06:07;100942.88;;;16.94;65.19
70976;BME280;58635;51.198;6.010;2022-10-16T03:08:33;100936.63;;;16.95;65.29
70976;BME280;58635;51.198;6.010;2022-10-16T03:10:58;100943.44;;;16.96;65.27
70976;BME280;58635;51.198;6.010;2022-10-16T03:13:23;100936.88;;;16.93;65.30
70976;BME280;58635;51.198;6.010;2022-10-16T03:15:49;100946.53;;;16.93;65.26
70976;BME280;58635;51.198;6.010;2022-10-16T03:18:15;100939.47;;;16.93;65.40
70976;BME280;58635;51.198;6.010;2022-10-16T03:20:40;100944.69;;;16.93;65.26
70976;BME280;58635;51.198;6.010;2022-10-16T03:23:05;100947.53;;;16.92;65.71
70976;BME280;58635;51.198;6.010;2022-10-16T03:25:33;100943.09;;;16.92;65.40
70976;BME280;58635;51.198;6.010;2022-10-16T03:27:58;100941.75;;;16.90;65.29
70976;BME280;58635;51.198;6.010;2022-10-16T03:30:24;100949.56;;;16.90;65.22
70976;BME280;58635;51.198;6.010;2022-10-16T03:32:49;100954.25;;;16.88;65.54
70976;BME280;58635;51.198;6.010;2022-10-16T03:35:21;100970.94;;;16.87;65.44
70976;BME280;58635;51.198;6.010;2022-10-16T03:37:47;100965.16;;;16.85;65.37
70976;BME280;58635;51.198;6.010;2022-10-16T03:40:13;100958.91;;;16.86;65.28
70976;BME280;58635;51.198;6.010;2022-10-16T03:42:38;100957.31;;;16.85;65.42
70976;BME280;58635;51.198;6.010;2022-10-16T03:45:04;100950.50;;;16.84;65.62
70976;BME280;58635;51.198;6.010;2022-10-16T03:47:30;100956.53;;;16.84;65.39
70976;BME280;58635;51.198;6.010;2022-10-16T03:49:58;100975.84;;;16.83;65.31
70976;BME280;58635;51.198;6.010;2022-10-16T03:52:23;100966.41;;;16.82;65.40
70976;BME280;58635;51.198;6.010;2022-10-16T03:54:49;100976.06;;;16.82;65.59
70976;BME280;58635;51.198;6.010;2022-10-16T03:57:14;100977.06;;;16.81;65.43
70976;BME280;58635;51.198;6.010;2022-10-16T03:59:40;100977.91;;;16.81;65.59
70976;BME280;58635;51.198;6.010;2022-10-16T04:02:05;100980.72;;;16.80;65.56
70976;BME280;58635;51.198;6.010;2022-10-16T04:04:30;100984.34;;;16.79;65.81
70976;BME280;58635;51.198;6.010;2022-10-16T04:06:56;100976.50;;;16.79;65.72
70976;BME280;58635;51.198;6.010;2022-10-16T04:09:21;100979.91;;;16.79;65.79
70976;BME280;58635;51.198;6.010;2022-10-16T04:11:46;100984.72;;;16.82;65.55
70976;BME280;58635;51.198;6.010;2022-10-16T04:14:12;101002.53;;;16.85;65.43
70976;BME280;58635;51.198;6.010;2022-10-16T04:16:37;100998.88;;;16.86;65.08
70976;BME280;58635;51.198;6.010;2022-10-16T04:19:03;101005.94;;;16.86;65.24
70976;BME280;58635;51.198;6.010;2022-10-16T04:21:28;101003.31;;;16.86;65.24
70976;BME280;58635;51.198;6.010;2022-10-16T04:23:54;101006.97;;;16.85;65.27
70976;BME280;58635;51.198;6.010;2022-10-16T04:26:19;101008.78;;;16.84;65.25
70976;BME280;58635;51.198;6.010;2022-10-16T04:28:44;101011.63;;;16.83;65.38
70976;BME280;58635;51.198;6.010;2022-10-16T04:31:10;101019.47;;;16.83;65.20
70976;BME280;58635;51.198;6.010;2022-10-16T04:33:35;101008.41;;;16.81;65.33
70976;BME280;58635;51.198;6.010;2022-10-16T04:36:02;101014.47;;;16.81;65.38
70976;BME280;58635;51.198;6.010;2022-10-16T04:38:27;101018.06;;;16.80;65.15
70976;BME280;58635;51.198;6.010;2022-10-16T04:40:53;101013.88;;;16.79;65.46
70976;BME280;58635;51.198;6.010;2022-10-16T04:43:19;101014.09;;;16.78;65.22
70976;BME280;58635;51.198;6.010;2022-10-16T04:45:45;101020.91;;;16.79;65.40
70976;BME280;58635;51.198;6.010;2022-10-16T04:48:11;101018.31;;;16.79;65.16
70976;BME280;58635;51.198;6.010;2022-10-16T04:50:36;101023.53;;;16.79;65.33
70976;BME280;58635;51.198;6.010;2022-10-16T04:53:02;101028.75;;;16.79;65.33
70976;BME280;58635;51.198;6.010;2022-10-16T04:55:27;101035.00;;;16.78;65.44
70976;BME280;58635;51.198;6.010;2022-10-16T04:57:52;101031.59;;;16.77;65.42
70976;BME280;58635;51.198;6.010;2022-10-16T05:00:18;101032.63;;;16.76;65.14
70976;BME280;58635;51.198;6.010;2022-10-16T05:02:43;101034.91;;;16.73;65.74
70976;BME280;58635;51.198;6.010;2022-10-16T05:05:09;101032.97;;;16.68;65.81
70976;BME280;58635;51.198;6.010;2022-10-16T05:07:34;101026.13;;;16.67;65.91
70976;BME280;58635;51.198;6.010;2022-10-16T05:09:59;101027.13;;;16.66;65.71
70976;BME280;58635;51.198;6.010;2022-10-16T05:12:25;101024.75;;;16.64;65.87
70976;BME280;58635;51.198;6.010;2022-10-16T05:14:50;101034.63;;;16.62;65.99
70976;BME280;58635;51.198;6.010;2022-10-16T05:17:16;101029.66;;;16.61;66.17
70976;BME280;58635;51.198;6.010;2022-10-16T05:19:41;101040.09;;;16.61;65.83
70976;BME280;58635;51.198;6.010;2022-10-16T05:22:07;101054.97;;;16.60;65.86
70976;BME280;58635;51.198;6.010;2022-10-16T05:24:32;101044.53;;;16.60;66.13
70976;BME280;58635;51.198;6.010;2022-10-16T05:26:58;101046.09;;;16.61;65.98
70976;BME280;58635;51.198;6.010;2022-10-16T05:29:23;101053.94;;;16.61;66.25
70976;BME280;58635;51.198;6.010;2022-10-16T05:31:52;101049.75;;;16.60;65.84
70976;BME280;58635;51.198;6.010;2022-10-16T05:34:18;101053.38;;;16.59;65.98
70976;BME280;58635;51.198;6.010;2022-10-16T05:36:44;101058.00;;;16.57;66.30
70976;BME280;58635;51.198;6.010;2022-10-16T05:39:11;101056.22;;;16.58;66.09
70976;BME280;58635;51.198;6.010;2022-10-16T05:41:36;101061.66;;;16.56;66.40
70976;BME280;58635;51.198;6.010;2022-10-16T05:44:05;101059.03;;;16.56;66.20
70976;BME280;58635;51.198;6.010;2022-10-16T05:46:31;101071.28;;;16.56;66.50
70976;BME280;58635;51.198;6.010;2022-10-16T05:48:57;101071.28;;;16.56;66.55
70976;BME280;58635;51.198;6.010;2022-10-16T05:51:22;101078.78;;;16.52;66.51
70976;BME280;58635;51.198;6.010;2022-10-16T05:53:48;101088.66;;;16.50;66.74
70976;BME280;58635;51.198;6.010;2022-10-16T05:56:14;101104.78;;;16.47;66.51
70976;BME280;58635;51.198;6.010;2022-10-16T05:58:40;101100.00;;;16.44;66.84
70976;BME280;58635;51.198;6.010;2022-10-16T06:01:09;101106.25;;;16.43;66.90
70976;BME280;58635;51.198;6.010;2022-10-16T06:03:35;101107.25;;;16.42;66.63
70976;BME280;58635;51.198;6.010;2022-10-16T06:06:08;101110.25;;;16.46;66.63
70976;BME280;58635;51.198;6.010;2022-10-16T06:08:34;101117.06;;;16.47;66.71
70976;BME280;58635;51.198;6.010;2022-10-16T06:11:03;101123.88;;;16.48;66.56
70976;BME280;58635;51.198;6.010;2022-10-16T06:13:29;101117.63;;;16.49;66.39
70976;BME280;58635;51.198;6.010;2022-10-16T06:15:57;101117.41;;;16.50;66.66
70976;BME280;58635;51.198;6.010;2022-10-16T06:18:26;101113.75;;;16.51;66.58
70976;BME280;58635;51.198;6.010;2022-10-16T06:20:52;101126.59;;;16.53;66.81
70976;BME280;58635;51.198;6.010;2022-10-16T06:23:18;101122.38;;;16.52;66.88
70976;BME280;58635;51.198;6.010;2022-10-16T06:25:44;101128.19;;;16.54;66.63
70976;BME280;58635;51.198;6.010;2022-10-16T06:28:09;101137.03;;;16.53;66.77
70976;BME280;58635;51.198;6.010;2022-10-16T06:30:35;101144.28;;;16.51;66.71
70976;BME280;58635;51.198;6.010;2022-10-16T06:33:00;101155.53;;;16.51;66.60
70976;BME280;58635;51.198;6.010;2022-10-16T06:35:26;101156.34;;;16.52;66.58
70976;BME280;58635;51.198;6.010;2022-10-16T06:37:53;101146.91;;;16.51;66.63
70976;BME280;58635;51.198;6.010;2022-10-16T06:40:18;101156.34;;;16.52;66.47
70976;BME280;58635;51.198;6.010;2022-10-16T06:42:44;101159.75;;;16.52;66.49
70976;BME280;58635;51.198;6.010;2022-10-16T06:45:09;101160.75;;;16.51;66.56
70976;BME280;58635;51.198;6.010;2022-10-16T06:47:35;101170.41;;;16.51;66.43
70976;BME280;58635;51.198;6.010;2022-10-16T06:50:00;101183.47;;;16.51;66.64
70976;BME280;58635;51.198;6.010;2022-10-16T06:52:28;101184.25;;;16.51;66.71
70976;BME280;58635;51.198;6.010;2022-10-16T06:54:53;101188.34;;;16.47;66.75
70976;BME280;58635;51.198;6.010;2022-10-16T06:57:18;101192.97;;;16.45;66.87
70976;BME280;58635;51.198;6.010;2022-10-16T06:59:44;101185.13;;;16.45;66.70
70976;BME280;58635;51.198;6.010;2022-10-16T07:02:09;101193.56;;;16.47;66.93
70976;BME280;58635;51.198;6.010;2022-10-16T07:04:35;101195.94;;;16.49;66.86
70976;BME280;58635;51.198;6.010;2022-10-16T07:07:01;101199.13;;;16.51;66.66
70976;BME280;58635;51.198;6.010;2022-10-16T07:09:26;101203.34;;;16.52;66.54
70976;BME280;58635;51.198;6.010;2022-10-16T07:11:52;101203.09;;;16.53;66.73
70976;BME280;58635;51.198;6.010;2022-10-16T07:14:20;101209.47;;;16.57;66.88
70976;BME280;58635;51.198;6.010;2022-10-16T07:16:46;101206.84;;;16.57;66.86
70976;BME280;58635;51.198;6.010;2022-10-16T07:19:12;101221.53;;;16.58;66.61
70976;BME280;58635;51.198;6.010;2022-10-16T07:21:40;101215.28;;;16.59;66.52
70976;BME280;58635;51.198;6.010;2022-10-16T07:24:10;101214.03;;;16.62;66.72
70976;BME280;58635;51.198;6.010;2022-10-16T07:26:36;101212.78;;;16.64;66.46
70976;BME280;58635;51.198;6.010;2022-10-16T07:29:05;101223.00;;;16.66;66.73
70976;BME280;58635;51.198;6.010;2022-10-16T07:31:31;101225.22;;;16.69;66.72
70976;BME280;58635;51.198;6.010;2022-10-16T07:33:58;101227.41;;;16.72;66.89
70976;BME280;58635;51.198;6.010;2022-10-16T07:36:24;101222.75;;;16.74;66.75
70976;BME280;58635;51.198;6.010;2022-10-16T07:38:49;101231.50;;;16.80;66.65
70976;BME280;58635;51.198;6.010;2022-10-16T07:41:17;101231.84;;;16.83;66.47
70976;BME280;58635;51.198;6.010;2022-10-16T07:43:50;101232.53;;;16.90;66.60
70976;BME280;58635;51.198;6.010;2022-10-16T07:46:16;101242.06;;;16.85;66.42
70976;BME280;58635;51.198;6.010;2022-10-16T07:48:42;101246.16;;;16.92;66.38
70976;BME280;58635;51.198;6.010;2022-10-16T07:51:13;101248.94;;;16.98;66.63
70976;BME280;58635;51.198;6.010;2022-10-16T07:53:39;101255.50;;;17.00;66.67
70976;BME280;58635;51.198;6.010;2022-10-16T07:56:06;101255.84;;;17.04;66.38
70976;BME280;58635;51.198;6.010;2022-10-16T07:58:33;101262.81;;;17.10;66.37
70976;BME280;58635;51.198;6.010;2022-10-16T08:01:03;101269.97;;;17.14;66.65
70976;BME280;58635;51.198;6.010;2022-10-16T08:03:29;101276.59;;;17.17;66.31
70976;BME280;58635;51.198;6.010;2022-10-16T08:05:56;101288.75;;;17.23;66.46
70976;BME280;58635;51.198;6.010;2022-10-16T08:08:22;101285.44;;;17.28;66.55
70976;BME280;58635;51.198;6.010;2022-10-16T08:10:57;101289.00;;;17.33;66.44
70976;BME280;58635;51.198;6.010;2022-10-16T08:13:22;101302.41;;;17.37;66.19
70976;BME280;58635;51.198;6.010;2022-10-16T08:15:48;101301.94;;;17.40;66.31
70976;BME280;58635;51.198;6.010;2022-10-16T08:18:14;101309.94;;;17.45;66.11
70976;BME280;58635;51.198;6.010;2022-10-16T08:20:41;101311.63;;;17.51;65.91
70976;BME280;58635;51.198;6.010;2022-10-16T08:23:07;101317.78;;;17.57;66.14
70976;BME280;58635;51.198;6.010;2022-10-16T08:25:35;101317.66;;;17.63;65.95
70976;BME280;58635;51.198;6.010;2022-10-16T08:28:03;101327.25;;;17.69;65.62
70976;BME280;58635;51.198;6.010;2022-10-16T08:30:29;101321.34;;;17.74;65.58
70976;BME280;58635;51.198;6.010;2022-10-16T08:32:55;101331.38;;;17.77;65.45
70976;BME280;58635;51.198;6.010;2022-10-16T08:35:20;101340.13;;;17.82;65.41
70976;BME280;58635;51.198;6.010;2022-10-16T08:37:46;101335.56;;;17.90;65.34
70976;BME280;58635;51.198;6.010;2022-10-16T08:40:26;101337.50;;;17.94;64.81
70976;BME280;58635;51.198;6.010;2022-10-16T08:43:00;101337.84;;;17.98;64.77
70976;BME280;58635;51.198;6.010;2022-10-16T08:45:35;101346.59;;;18.03;64.54
70976;BME280;58635;51.198;6.010;2022-10-16T08:50:50;101352.63;;;18.16;64.45
70976;BME280;58635;51.198;6.010;2022-10-16T08:53:25;101360.13;;;18.24;64.02
70976;BME280;58635;51.198;6.010;2022-10-16T08:55:55;101355.22;;;18.27;64.12
70976;BME280;58635;51.198;6.010;2022-10-16T08:58:22;101361.13;;;18.34;63.81
70976;BME280;58635;51.198;6.010;2022-10-16T09:00:57;101365.69;;;18.39;63.56
70976;BME280;58635;51.198;6.010;2022-10-16T09:09:03;101363.59;;;18.53;62.93
70976;BME280;58635;51.198;6.010;2022-10-16T09:16:46;101368.50;;;18.61;62.67
70976;BME280;58635;51.198;6.010;2022-10-16T09:19:38;101374.09;;;18.64;62.66
70976;BME280;58635;51.198;6.010;2022-10-16T09:22:27;101377.03;;;18.68;62.50
70976;BME280;58635;51.198;6.010;2022-10-16T09:24:55;101373.97;;;18.71;62.32
70976;BME280;58635;51.198;6.010;2022-10-16T09:27:24;101367.22;;;18.75;62.07
70976;BME280;58635;51.198;6.010;2022-10-16T09:29:51;101378.59;;;18.81;62.21
70976;BME280;58635;51.198;6.010;2022-10-16T09:32:19;101381.88;;;18.88;61.92
70976;BME280;58635;51.198;6.010;2022-10-16T09:34:49;101385.38;;;18.93;61.42
70976;BME280;58635;51.198;6.010;2022-10-16T09:37:18;101387.53;;;18.96;61.41
70976;BME280;58635;51.198;6.010;2022-10-16T09:42:19;101379.28;;;19.05;60.73
70976;BME280;58635;51.198;6.010;2022-10-16T09:44:50;101385.31;;;19.05;60.55
70976;BME280;58635;51.198;6.010;2022-10-16T09:47:21;101386.69;;;19.08;60.19
70976;BME280;58635;51.198;6.010;2022-10-16T09:50:34;101384.63;;;19.10;60.09
70976;BME280;58635;51.198;6.010;2022-10-16T09:53:12;101376.06;;;19.14;60.32
70976;BME280;58635;51.198;6.010;2022-10-16T09:55:51;101385.13;;;19.23;60.28
70976;BME280;58635;51.198;6.010;2022-10-16T09:58:17;101386.34;;;19.33;60.06
70976;BME280;58635;51.198;6.010;2022-10-16T10:00:49;101386.19;;;19.39;59.85
70976;BME280;58635;51.198;6.010;2022-10-16T10:03:33;101388.34;;;19.42;59.62
70976;BME280;58635;51.198;6.010;2022-10-16T10:06:06;101381.59;;;19.46;59.51
70976;BME280;58635;51.198;6.010;2022-10-16T10:08:32;101387.50;;;19.53;59.55
70976;BME280;58635;51.198;6.010;2022-10-16T10:10:58;101384.72;;;19.60;59.54
70976;BME280;58635;51.198;6.010;2022-10-16T10:13:24;101384.50;;;19.62;59.15
70976;BME280;58635;51.198;6.010;2022-10-16T10:15:52;101389.50;;;19.63;59.19
70976;BME280;58635;51.198;6.010;2022-10-16T10:18:19;101396.66;;;19.68;59.08
70976;BME280;58635;51.198;6.010;2022-10-16T10:21:00;101393.06;;;19.74;58.53
70976;BME280;58635;51.198;6.010;2022-10-16T10:23:27;101405.16;;;19.75;58.27
70976;BME280;58635;51.198;6.010;2022-10-16T10:31:45;101398.25;;;19.85;58.28
70976;BME280;58635;51.198;6.010;2022-10-16T10:34:35;101396.97;;;19.88;58.09
70976;BME280;58635;51.198;6.010;2022-10-16T10:39:43;101394.22;;;19.78;57.56
70976;BME280;58635;51.198;6.010;2022-10-16T10:45:27;101395.47;;;19.75;57.65
70976;BME280;58635;51.198;6.010;2022-10-16T10:50:41;101404.78;;;19.83;57.32
70976;BME280;58635;51.198;6.010;2022-10-16T11:04:17;101420.75;;;19.98;57.07
70976;BME280;58635;51.198;6.010;2022-10-16T11:06:55;101426.09;;;20.03;56.86
70976;BME280;58635;51.198;6.010;2022-10-16T11:09:30;101417.22;;;20.09;56.60
70976;BME280;58635;51.198;6.010;2022-10-16T11:14:45;101420.00;;;20.20;56.35
70976;BME280;58635;51.198;6.010;2022-10-16T11:17:18;101423.50;;;20.25;56.11
70976;BME280;58635;51.198;6.010;2022-10-16T11:20:11;101426.75;;;20.32;55.88
70976;BME280;58635;51.198;6.010;2022-10-16T11:22:43;101428.16;;;20.40;55.88
70976;BME280;58635;51.198;6.010;2022-10-16T11:27:43;101423.13;;;20.55;55.45
70976;BME280;58635;51.198;6.010;2022-10-16T11:30:25;101425.50;;;20.57;55.35
70976;BME280;58635;51.198;6.010;2022-10-16T11:35:43;101424.00;;;20.61;55.25
70976;BME280;58635;51.198;6.010;2022-10-16T11:38:28;101427.31;;;20.73;55.03
70976;BME280;58635;51.198;6.010;2022-10-16T11:41:00;101427.19;;;20.85;55.01
70976;BME280;58635;51.198;6.010;2022-10-16T11:43:34;101436.19;;;20.94;54.86
70976;BME280;58635;51.198;6.010;2022-10-16T11:46:21;101440.53;;;21.05;53.79
70976;BME280;58635;51.198;6.010;2022-10-16T11:49:12;101433.44;;;21.06;53.62
70976;BME280;58635;51.198;6.010;2022-10-16T11:51:45;101431.94;;;21.10;53.84
70976;BME280;58635;51.198;6.010;2022-10-16T11:56:51;101423.56;;;21.18;53.83
70976;BME280;58635;51.198;6.010;2022-10-16T11:59:27;101425.66;;;21.16;53.69
70976;BME280;58635;51.198;6.010;2022-10-16T12:04:39;101426.88;;;21.30;53.58
70976;BME280;58635;51.198;6.010;2022-10-16T12:07:15;101434.63;;;21.42;53.48
70976;BME280;58635;51.198;6.010;2022-10-16T12:09:42;101432.88;;;21.52;53.01
70976;BME280;58635;51.198;6.010;2022-10-16T12:12:28;101417.13;;;21.57;52.46
70976;BME280;58635;51.198;6.010;2022-10-16T12:17:48;101419.78;;;21.57;52.25
70976;BME280;58635;51.198;6.010;2022-10-16T12:22:49;101426.44;;;21.70;51.95
70976;BME280;58635;51.198;6.010;2022-10-16T12:28:22;101422.94;;;21.92;51.55
70976;BME280;58635;51.198;6.010;2022-10-16T12:30:56;101425.59;;;22.02;51.08
70976;BME280;58635;51.198;6.010;2022-10-16T12:33:29;101422.44;;;22.00;50.84
70976;BME280;58635;51.198;6.010;2022-10-16T12:35:56;101421.88;;;21.93;51.22
70976;BME280;58635;51.198;6.010;2022-10-16T12:38:29;101425.25;;;21.88;51.26
70976;BME280;58635;51.198;6.010;2022-10-16T12:41:03;101427.06;;;21.82;51.09
70976;BME280;58635;51.198;6.010;2022-10-16T12:49:22;101427.44;;;21.64;51.68
70976;BME280;58635;51.198;6.010;2022-10-16T12:51:54;101429.59;;;21.67;51.68
70976;BME280;58635;51.198;6.010;2022-10-16T12:54:28;101420.59;;;21.63;51.41
70976;BME280;58635;51.198;6.010;2022-10-16T12:59:48;101437.06;;;21.48;52.33
70976;BME280;58635;51.198;6.010;2022-10-16T13:02:52;101427.41;;;21.59;52.08
70976;BME280;58635;51.198;6.010;2022-10-16T13:08:02;101441.06;;;21.88;51.81
70976;BME280;58635;51.198;6.010;2022-10-16T13:21:50;101423.97;;;22.33;51.02
70976;BME280;58635;51.198;6.010;2022-10-16T13:26:55;101430.34;;;22.42;50.66
70976;BME280;58635;51.198;6.010;2022-10-16T13:29:23;101435.63;;;22.47;50.57
70976;BME280;58635;51.198;6.010;2022-10-16T13:31:49;101434.63;;;22.53;50.80
70976;BME280;58635;51.198;6.010;2022-10-16T13:34:18;101440.97;;;22.57;50.48
70976;BME280;58635;51.198;6.010;2022-10-16T13:36:48;101445.19;;;22.58;49.98
70976;BME280;58635;51.198;6.010;2022-10-16T13:39:26;101445.19;;;22.58;50.34
70976;BME280;58635;51.198;6.010;2022-10-16T13:42:01;101449.72;;;22.63;49.57
70976;BME280;58635;51.198;6.010;2022-10-16T13:44:32;101445.22;;;22.63;49.60
70976;BME280;58635;51.198;6.010;2022-10-16T13:47:01;101449.72;;;22.63;49.74
70976;BME280;58635;51.198;6.010;2022-10-16T13:49:27;101439.69;;;22.65;50.19
70976;BME280;58635;51.198;6.010;2022-10-16T13:51:57;101446.00;;;22.64;49.81
70976;BME280;58635;51.198;6.010;2022-10-16T13:54:24;101451.56;;;22.62;49.83
70976;BME280;58635;51.198;6.010;2022-10-16T13:56:50;101450.19;;;22.60;49.64
70976;BME280;58635;51.198;6.010;2022-10-16T13:59:27;101447.03;;;22.58;49.58
70976;BME280;58635;51.198;6.010;2022-10-16T14:01:58;101454.66;;;22.54;49.70
70976;BME280;58635;51.198;6.010;2022-10-16T14:04:25;101462.31;;;22.51;49.61
70976;BME280;58635;51.198;6.010;2022-10-16T14:06:54;101464.91;;;22.45;49.64
70976;BME280;58635;51.198;6.010;2022-10-16T14:09:26;101456.97;;;22.40;49.45
70976;BME280;58635;51.198;6.010;2022-10-16T14:11:56;101453.75;;;22.33;49.50
70976;BME280;58635;51.198;6.010;2022-10-16T14:14:23;101456.38;;;22.28;49.84
70976;BME280;58635;51.198;6.010;2022-10-16T14:16:49;101455.84;;;22.26;50.17
70976;BME280;58635;51.198;6.010;2022-10-16T14:19:23;101454.75;;;22.22;50.17
70976;BME280;58635;51.198;6.010;2022-10-16T14:21:51;101460.53;;;22.19;50.29
70976;BME280;58635;51.198;6.010;2022-10-16T14:26:56;101467.13;;;22.16;50.69
70976;BME280;58635;51.198;6.010;2022-10-16T14:29:22;101467.91;;;22.17;50.67
70976;BME280;58635;51.198;6.010;2022-10-16T14:31:56;101456.81;;;22.15;50.85
70976;BME280;58635;51.198;6.010;2022-10-16T14:34:30;101448.63;;;22.11;50.92
70976;BME280;58635;51.198;6.010;2022-10-16T14:37:14;101458.09;;;22.07;51.13
70976;BME280;58635;51.198;6.010;2022-10-16T14:39:42;101449.31;;;22.02;51.29
70976;BME280;58635;51.198;6.010;2022-10-16T14:42:16;101445.88;;;22.01;51.54
70976;BME280;58635;51.198;6.010;2022-10-16T14:44:44;101436.13;;;21.97;51.45
70976;BME280;58635;51.198;6.010;2022-10-16T14:47:13;101438.22;;;21.95;51.35